Adrian, MN

1:21 PM CDT on September 29, 2016 (GMT -0500)
Little Rock TWP | | Change Station

Elev 1594 ft 43.56 °N, 95.93 °W | Updated 5 seconds ago

Scattered Clouds
Scattered Clouds
68.6 °F
Feels Like 68.6 °F
N
3.0
Wind Variable Wind from SE

Today
High -- | Low -- °F
--% Chance of Precip.
Yesterday
High -- | Low -- °F
Precip. -- in
Pressure 30.45 in
Visibility 10.0 miles
Clouds Scattered Clouds 3500 ft
Dew Point 50 °F
Humidity 51%
Rainfall 0.00 in
Snow Depth Not available.
7:19 AM 7:07 PM
Waning Crescent, 1% visible
METAR KLYV 291816Z AUTO 00000KT 10SM SCT035 17/07 A3045 RMK AO2
Pressure 30.45 in
Visibility 10.0 miles
Clouds Scattered Clouds 3500 ft
Dew Point 50 °F
Humidity 51%
Rainfall 0.00 in
Snow Depth Not available.
7:19 AM 7:07 PM
Waning Crescent, 1% visible
METAR KLYV 291816Z AUTO 00000KT 10SM SCT035 17/07 A3045 RMK AO2

10-Day Weather Forecast

Almanac

Astronomy

Sep. 29, 2016 Rise Set
Actual Time
Civil Twilight
Nautical Twilight
Astronomical Twilight
Moon
Length of Visible Light
Length of Day
Tomorrow will be .
, % of the Moon is Illuminated

Today's Extremes

State Highs State Lows

Community

WunderPhotos

Upload Photos

1,942,545 photos uploaded!

WunderBlog® & News

Nearby

Air Quality

  Air Quality AQ Index Pollutant
Not available.

Snow Depth

Station Depth Elevation

Earthquake Activity

City Distance Mag. Time & Date
Minimum magnitude displayed is 2.5.

Coastal Water Temperatures

Place Temperature

Stations

Nearby Weather Stations

Station Location Temp. Windchill Dew Point Humidity Wind Precip. Elev Updated Type
                   

Watches & Warnings

There are currently no watches in effect.